• Join FlightAware (Why Join?)
  • Login
  • US Flag 
03:25AM EDT


 

Airport Tracker/Info


-or-


 

Live Flight TrackerFlight Track Log ✈ N6036Y ✈ 02-Mar-2014 ✈ 7F6 - KTLH

Flight Track Log - Related Links

Times and Time Zones

All times are in EST time to prevent confusion due to time zone crossing. See the N6036Y flight status page for this flight to view local times or setup timezone preferences in your user account.

Time Position Orientation Groundspeed Altitude Reporting Facility
EST Latitude Longitude Course Direction KTS MPH feet Rate Location/Type
06:33PM 29.8031 -82.1889 116° Southeast 91 105 8,500  Level Jacksonville Center
06:34PM 29.8117 -82.2200 288° West 91 105 8,500  Level Jacksonville Center
06:35PM 29.8203 -82.2486 289° West 91 105 8,500  Level Jacksonville Center
06:36PM 29.8267 -82.2797 283° West 96 110 8,500  Level Jacksonville Center
06:37PM 29.8350 -82.3108 287° West 101 116 8,500  Level Jacksonville Center
06:38PM -19.3811 -161.3513 116° Southeast  Level Estimated
06:38PM 29.8436 -82.3369 291° West 101 116 8,500  Level Jacksonville Center
06:39PM 29.8542 -82.3681 291° West 101 116 8,500  Level Jacksonville Center
06:40PM 29.8625 -82.3992 287° West 101 116 8,500  Level Jacksonville Center
06:41PM 29.8711 -82.4278 289° West 106 122 8,500  Level Jacksonville Center
06:42PM 29.8794 -82.4589 287° West 106 122 8,500  Level Jacksonville Center
06:43PM 29.8881 -82.4878 289° West 106 122 8,500  Level Jacksonville Center
06:44PM 29.8964 -82.5211 286° West 106 122 8,500  Level Jacksonville Center
06:45PM 29.9050 -82.5500 289° West 106 122 8,500  Level Jacksonville Center
06:46PM 29.9133 -82.5811 287° West 106 122 8,500  Level Jacksonville Center
06:47PM 29.9217 -82.6097 289° West 106 122 8,500  Level Jacksonville Center
06:48PM 29.9300 -82.6408 287° West 106 122 8,500  Level Jacksonville Center
06:49PM 29.9386 -82.6697 289° West 106 122 8,500  Level Jacksonville Center
06:50PM 29.9469 -82.7008 287° West 102 117 8,500  Level Jacksonville Center
06:51PM 29.9553 -82.7294 289° West 102 117 8,500  Level Jacksonville Center
06:52PM 29.9636 -82.7606 287° West 102 117 8,500  Level Jacksonville Center
06:53PM 29.9722 -82.7894 289° West 102 117 8,500  Level Jacksonville Center
06:54PM 29.9806 -82.8183 288° West 102 117 8,500  Level Jacksonville Center
06:55PM 29.9889 -82.8494 287° West 104 120 8,500  Level Jacksonville Center
06:56PM 29.9972 -82.8806 287° West 104 120 8,500  Level Jacksonville Center
06:57PM 30.0075 -82.9094 292° West 104 120 8,500  Level Jacksonville Center
06:58PM 30.0139 -82.9406 283° West 104 120 8,500 -60 Level Jacksonville Center
06:59PM 30.0222 -82.9694 288° West 104 120 8,400 -60 Descending Jacksonville Center
07:00PM 30.0306 -82.9981 289° West 104 120 8,400  Level Jacksonville Center
07:01PM 30.0389 -83.0294 287° West 104 120 8,400  Level Jacksonville Center
07:02PM 30.0472 -83.0581 289° West 104 120 8,400  Level Jacksonville Center
07:03PM 30.0556 -83.0869 288° West 104 120 8,400  Level Jacksonville Center
07:04PM 30.0639 -83.1158 288° West 104 120 8,400  Level Jacksonville Center
07:05PM 30.0722 -83.1469 287° West 104 120 8,400  Level Jacksonville Center
07:06PM 30.0783 -83.1758 284° West 104 120 8,400  Level Jacksonville Center
07:07PM 30.0867 -83.2069 287° West 104 120 8,400  Level Jacksonville Center
07:08PM 30.0947 -83.2358 288° West 104 120 8,400  Level Jacksonville Center
07:09PM 30.1031 -83.2622 290° West 104 120 8,400  Level Jacksonville Center
07:10PM 30.1114 -83.2911 288° West 104 120 8,400  Level Jacksonville Center
07:11PM 30.1197 -83.3200 288° West 104 120 8,400  Level Jacksonville Center
07:12PM 30.1278 -83.3514 287° West 104 120 8,400 -180 Level Jacksonville Center
07:13PM 30.1342 -83.3800 284° West 104 120 8,100 -360 Descending Jacksonville Center
07:14PM 30.1422 -83.4089 288° West 104 120 7,700 -480 Descending Jacksonville Center
07:15PM 30.1525 -83.4403 291° West 104 120 7,200 -540 Descending Jacksonville Center
07:16PM 30.1586 -83.4714 283° West 104 120 6,700 -540 Descending Jacksonville Center
07:17PM 30.1689 -83.5053 289° West 104 120 6,200 -600 Descending Jacksonville Center
07:18PM 30.1792 -83.5389 289° West 104 120 5,600 -600 Descending Jacksonville Center
07:19PM 30.1875 -83.5703 287° West 104 120 5,100 -540 Descending Jacksonville Center
07:21PM 30.2015 -83.6389 287° West  Level FlightAware Approximate
07:28PM 30.2634 -83.8778 287° West  Level FlightAware Approximate
07:29PM 30.2722 -83.9119 287° West  Level FlightAware Approximate
07:30PM 30.2810 -83.9461 287° West  Level FlightAware Approximate
07:31PM 30.2898 -83.9802 287° West  Level FlightAware Approximate
07:32PM 30.2986 -84.0144 287° West  Level FlightAware Approximate
07:33PM 30.3073 -84.0486 287° West  Level FlightAware Approximate
07:34PM 30.3161 -84.0827 287° West  Level FlightAware Approximate
07:35PM 30.3249 -84.1169 287° West  Level FlightAware Approximate
07:36PM 30.3337 -84.1511 291° West  Level FlightAware Approximate
07:37PM 30.3448 -84.1843 291° West  Level FlightAware Approximate
07:38PM 30.3559 -84.2176 291° West  Level FlightAware Approximate
07:39PM 30.3668 -84.2509 281° West  Level FlightAware Approximate
07:40PM 30.3727 -84.2860 281° West  Level FlightAware Approximate
07:41PM 30.3785 -84.3210 281° West  Level FlightAware Approximate
07:42PM 30.3833 -84.3500 281° West  Level FlightAware Approximate
07:43PM 30.3967 -84.3509 281° West  Level Estimated
07:44PM 30.3967 -84.3509 281° West  Level Estimated
07:45PM 30.3967 -84.3509 281° West  Level Estimated
07:46PM 30.3967 -84.3509 281° West  Level Estimated
07:47PM 30.3967 -84.3509 281° West  Level Estimated
07:48PM 30.3967 -84.3509 281° West  Level Estimated
07:49PM 30.3967 -84.3509 281° West  Level Estimated
07:50PM 30.3967 -84.3509 281° West  Level Estimated
07:51PM 30.3967 -84.3509 281° West  Level Estimated
07:52PM 30.3967 -84.3509 281° West  Level Estimated
07:53PM 30.3967 -84.3509 281° West  Level Estimated
07:54PM 30.3967 -84.3509 281° West  Level Estimated